Fortune Wing — VRHW2 — position and weather

sailwx.info

Track history (hours):
 
Tides and Currents Weather Stations Pressure Air Temp Water Temp Dewpoint Dewpoint Depression Visibility Wind Speed Wind Dir Waves Ship Positions

Fortune Wing

Last reported at 2017-Feb-06 09:25 UTC. Time now 2017-Feb-26 14:47 UTC.
Position N 01°15' E 104°03'.
Warning: this ship's position is 20 days out of date.

Length 190 m; draft 12.9 m.

Type: Cargo ship. MMSI: 477389500.

Date/timePositionNaut miles runAvg speedWind from/ knotsBaromVisibWave heightAir tempDewpointWater temp
2017-Feb-06 09:25N 01°15' E 104°03'7 8.1
2017-Feb-06 08:33N 01°16' E 103°56'1 0.6
2017-Feb-06 07:29N 01°17' E 103°57'0 0.0
2017-Feb-06 06:32N 01°17' E 103°57'0 0.0
2017-Feb-06 05:29N 01°17' E 103°57'0 0.0
2017-Feb-06 04:17N 01°17' E 103°57'0 0.0
2017-Feb-06 03:23N 01°17' E 103°57'0 0.0
2017-Feb-06 02:29N 01°17' E 103°57'0 0.0
2017-Feb-06 01:29N 01°17' E 103°57'0 0.0
2017-Feb-06 00:32N 01°17' E 103°57'0 0.2
2017-Feb-05 23:22N 01°17' E 103°57'2 2.9
2017-Feb-05 22:33N 01°15' E 103°59'2 2.3
2017-Feb-05 21:33N 01°16' E 104°01'1 1.5
2017-Feb-05 20:33N 01°14' E 104°01'7 6.4
2017-Feb-05 19:32N 01°12' E 103°55'7 6.7
2017-Feb-05 18:31N 01°10' E 103°48'90 9.1
2017-Feb-05 08:33N 01°48' E 102°27'  
Track history (hours):
 
Tides and Currents Weather Stations Pressure Air Temp Water Temp Dewpoint Dewpoint Depression Visibility Wind Speed Wind Dir Waves Ship Positions

Fortune Wing

Last reported at 2017-Feb-06 09:25 UTC. Time now 2017-Feb-26 14:47 UTC.
Position N 01°15' E 104°03'.
Warning: this ship's position is 20 days out of date.

Length 190 m; draft 12.9 m.

Type: Cargo ship. MMSI: 477389500.

Date/timePositionNaut miles runAvg speedWind from/ knotsBaromVisibWave heightAir tempDewpointWater temp
2017-Feb-06 09:25N 01°15' E 104°03'7 8.1
2017-Feb-06 08:33N 01°16' E 103°56'1 0.6
2017-Feb-06 07:29N 01°17' E 103°57'0 0.0
2017-Feb-06 06:32N 01°17' E 103°57'0 0.0
2017-Feb-06 05:29N 01°17' E 103°57'0 0.0
2017-Feb-06 04:17N 01°17' E 103°57'0 0.0
2017-Feb-06 03:23N 01°17' E 103°57'0 0.0
2017-Feb-06 02:29N 01°17' E 103°57'0 0.0
2017-Feb-06 01:29N 01°17' E 103°57'0 0.0
2017-Feb-06 00:32N 01°17' E 103°57'0 0.2
2017-Feb-05 23:22N 01°17' E 103°57'2 2.9
2017-Feb-05 22:33N 01°15' E 103°59'2 2.3
2017-Feb-05 21:33N 01°16' E 104°01'1 1.5
2017-Feb-05 20:33N 01°14' E 104°01'7 6.4
2017-Feb-05 19:32N 01°12' E 103°55'7 6.7
2017-Feb-05 18:31N 01°10' E 103°48'90 9.1
2017-Feb-05 08:33N 01°48' E 102°27'  

Dump ship's entire track history